Time;durP1;ratioP1;P1;durP2;ratioP2;P2;SDS_P1;SDS_P2;PMS_P1;PMS_P2;Temp;Humidity;BMP_temperature;BMP_pressure;BME280_temperature;BME280_humidity;BME280_pressure;Samples;Min_cycle;Max_cycle;Signal;HPM_P1;HPM_P2
2020/12/09 00:00:10;;;;;;;15.80;8.47;;;;;;;-4.16;57.13;101751.36;1717477;82;21152;-44
2020/12/09 00:02:40;;;;;;;13.60;7.07;;;;;;;-4.14;57.19;101753.16;1723385;82;21137;-42
2020/12/09 00:05:11;;;;;;;10.43;6.12;;;;;;;-4.12;57.14;101749.30;1702521;83;21157;-42
2020/12/09 00:07:38;;;;;;;11.93;7.00;;;;;;;-4.10;57.10;101755.42;1702742;83;21161;-38
2020/12/09 00:10:07;;;;;;;13.80;7.63;;;;;;;-4.14;57.17;101749.25;1700226;81;21169;-42
2020/12/09 00:12:34;;;;;;;11.27;6.93;;;;;;;-4.09;57.12;101753.69;1723151;81;21141;-40
2020/12/09 00:15:07;;;;;;;10.43;5.80;;;;;;;-4.07;57.01;101746.36;1717524;83;21130;-39
2020/12/09 00:17:34;;;;;;;13.67;7.40;;;;;;;-4.02;57.03;101746.47;1687223;82;21163;-42
2020/12/09 00:20:03;;;;;;;13.40;6.97;;;;;;;-4.00;57.05;101744.78;1685253;84;21174;-44
2020/12/09 00:22:31;;;;;;;11.93;5.87;;;;;;;-3.99;56.97;101742.61;1720376;81;21465;-43
2020/12/09 00:24:58;;;;;;;8.93;5.80;;;;;;;-3.97;56.92;101741.80;1703785;82;21605;-44
2020/12/09 00:27:26;;;;;;;11.27;5.80;;;;;;;-3.95;56.98;101740.54;1705749;83;21130;-43
2020/12/09 00:29:53;;;;;;;13.07;6.43;;;;;;;-3.94;56.91;101744.89;1698084;83;21153;-42
2020/12/09 00:32:21;;;;;;;13.97;6.87;;;;;;;-3.93;56.80;101744.06;1754658;79;21161;-41
2020/12/09 00:34:48;;;;;;;12.63;7.27;;;;;;;-3.92;56.82;101744.50;1765616;79;21110;-40
2020/12/09 00:37:17;;;;;;;13.33;6.67;;;;;;;-3.93;56.63;101744.94;1752386;81;21593;-44
2020/12/09 00:39:44;;;;;;;10.17;5.97;;;;;;;-3.90;56.76;101744.12;1752430;79;21114;-46
2020/12/09 00:42:12;;;;;;;13.03;6.37;;;;;;;-3.90;56.87;101736.73;1754850;79;21336;-42
2020/12/09 00:44:41;;;;;;;9.80;5.97;;;;;;;-3.90;56.69;101728.91;1751503;79;21141;-41
2020/12/09 00:47:08;;;;;;;12.83;6.47;;;;;;;-3.89;56.65;101729.35;1764022;79;21153;-41
2020/12/09 00:52:23;;;;;;;11.73;6.07;;;;;;;-3.89;56.79;101722.84;1766244;79;21138;-42
2020/12/09 00:54:51;;;;;;;10.63;6.23;;;;;;;-3.87;56.89;101726.36;1733857;81;21141;-39
2020/12/09 00:57:23;;;;;;;9.87;6.07;;;;;;;-3.85;56.82;101722.94;1754082;79;21613;-41
2020/12/09 00:59:51;;;;;;;9.00;5.47;;;;;;;-3.86;56.80;101723.77;1754169;79;21154;-42
2020/12/09 01:02:20;;;;;;;10.87;5.07;;;;;;;-3.87;56.74;101725.92;1754595;79;21161;-41
2020/12/09 01:04:49;;;;;;;10.20;5.93;;;;;;;-3.89;56.80;101718.92;1750202;81;21162;-39
2020/12/09 01:07:17;;;;;;;10.93;6.20;;;;;;;-3.86;56.71;101721.16;1754716;81;21820;-43
2020/12/09 01:09:45;;;;;;;11.57;6.40;;;;;;;-3.85;56.69;101722.94;1748060;81;21268;-37
2020/12/09 01:12:13;;;;;;;10.67;5.40;;;;;;;-3.85;56.79;101719.02;1755803;79;21098;-43
2020/12/09 01:14:41;;;;;;;8.43;4.93;;;;;;;-3.83;56.58;101714.72;1761315;79;21130;-43
2020/12/09 01:17:08;;;;;;;9.30;5.97;;;;;;;-3.80;56.72;101705.66;1757177;79;21146;-38
2020/12/09 01:19:36;;;;;;;11.37;5.67;;;;;;;-3.79;56.73;101712.61;1754030;81;21121;-43
2020/12/09 01:22:05;;;;;;;10.67;5.20;;;;;;;-3.79;56.67;101705.22;1716351;82;21165;-40
2020/12/09 01:24:32;;;;;;;10.83;6.53;;;;;;;-3.79;56.94;101696.97;1702443;83;21292;-43
2020/12/09 01:27:00;;;;;;;10.37;5.43;;;;;;;-3.76;56.94;101699.62;1724327;81;21138;-38
2020/12/09 01:29:27;;;;;;;11.07;5.47;;;;;;;-3.74;56.97;101695.33;1707590;81;21161;-41
2020/12/09 01:31:59;;;;;;;9.13;5.97;;;;;;;-3.72;56.98;101691.45;1706156;82;21580;-40
2020/12/09 01:34:27;;;;;;;9.43;5.97;;;;;;;-3.70;56.92;101706.28;1753799;81;21116;-42
2020/12/09 01:36:55;;;;;;;11.93;5.97;;;;;;;-3.68;57.02;101703.69;1761862;79;21164;-43
2020/12/09 01:39:23;;;;;;;11.30;5.63;;;;;;;-3.65;56.97;101701.56;1758291;79;21157;-41
2020/12/09 01:41:50;;;;;;;10.47;5.93;;;;;;;-3.65;57.01;101697.25;1763103;79;21151;-40
2020/12/09 01:44:18;;;;;;;10.63;5.63;;;;;;;-3.65;56.95;101699.86;1754552;80;22451;-44
2020/12/09 01:46:46;;;;;;;13.00;6.70;;;;;;;-3.62;57.02;101699.04;1756112;81;21141;-42
2020/12/09 01:49:13;;;;;;;12.83;5.27;;;;;;;-3.59;57.16;101700.39;1761475;81;21171;-43
2020/12/09 01:51:41;;;;;;;10.70;5.70;;;;;;;-3.55;57.23;101703.52;1751524;80;21593;-41
2020/12/09 01:54:08;;;;;;;11.50;6.27;;;;;;;-3.54;57.28;101703.53;1767576;79;21562;-42
2020/12/09 01:56:35;;;;;;;10.40;5.97;;;;;;;-3.53;57.38;101699.19;1756636;80;21146;-42
2020/12/09 01:59:03;;;;;;;9.10;6.17;;;;;;;-3.53;57.38;101698.79;1752796;81;22061;-44
2020/12/09 02:01:30;;;;;;;13.07;6.90;;;;;;;-3.50;57.45;101700.14;1697518;83;21636;-42
2020/12/09 02:03:58;;;;;;;10.80;6.23;;;;;;;-3.45;57.39;101701.94;1735838;81;21137;-42
2020/12/09 02:06:26;;;;;;;8.77;5.70;;;;;;;-3.45;57.35;101696.72;1754950;81;21122;-40
2020/12/09 02:11:18;;;;;;;11.63;7.07;;;;;;;-3.36;57.10;101706.90;1758127;79;23152;-42
2020/12/09 02:13:46;;;;;;;11.50;5.60;;;;;;;-3.36;57.09;101710.81;1729047;81;21110;-44
2020/12/09 02:16:14;;;;;;;9.03;5.30;;;;;;;-3.36;57.01;101706.90;1736205;80;21146;-41
2020/12/09 02:18:41;;;;;;;9.73;5.37;;;;;;;-3.34;57.03;101714.33;1735753;80;21145;-38
2020/12/09 02:21:09;;;;;;;8.47;5.10;;;;;;;-3.32;56.96;101711.77;1733774;82;21642;-41
2020/12/09 02:23:36;;;;;;;8.20;5.43;;;;;;;-3.29;56.96;101710.51;1734755;80;21609;-42
2020/12/09 02:26:04;;;;;;;8.70;4.80;;;;;;;-3.25;56.88;101711.03;1734007;80;21438;-39
2020/12/09 02:28:31;;;;;;;7.47;4.73;;;;;;;-3.22;56.91;101695.84;1732853;80;21138;-43
2020/12/09 02:30:59;;;;;;;10.30;6.33;;;;;;;-3.19;56.88;101698.07;1735832;80;21134;-42
2020/12/09 02:33:26;;;;;;;8.73;5.03;;;;;;;-3.17;57.02;101704.20;1732860;82;21114;-39
2020/12/09 02:35:54;;;;;;;11.60;5.17;;;;;;;-3.17;57.06;101704.20;1743285;80;21129;-43
2020/12/09 02:38:22;;;;;;;10.17;5.53;;;;;;;-3.16;57.08;101699.86;1730622;80;21473;-39
2020/12/09 02:40:49;;;;;;;8.57;5.13;;;;;;;-3.13;57.00;101705.13;1734141;82;21186;-42
2020/12/09 02:43:17;;;;;;;9.73;5.67;;;;;;;-3.11;56.94;101704.73;1733818;82;21283;-43
2020/12/09 02:45:46;;;;;;;8.70;5.30;;;;;;;-3.08;56.92;101708.69;1733115;80;21142;-42
2020/12/09 02:48:15;;;;;;;9.03;4.83;;;;;;;-3.08;56.89;101712.17;1737174;80;21444;-40
2020/12/09 02:50:43;;;;;;;8.17;4.90;;;;;;;-3.05;56.97;101716.56;1718910;82;21130;-42
2020/12/09 02:53:10;;;;;;;10.60;5.80;;;;;;;-3.02;57.15;101707.91;1714093;83;21157;-41
2020/12/09 02:55:38;;;;;;;12.30;5.83;;;;;;;-2.99;57.11;101705.37;1713407;82;21125;-40
2020/12/09 02:58:05;;;;;;;7.97;5.27;;;;;;;-2.95;56.96;101708.45;1721789;82;21158;-41
2020/12/09 03:00:33;;;;;;;10.93;6.13;;;;;;;-2.95;56.88;101712.38;1716386;82;21161;-41
2020/12/09 03:03:03;;;;;;;12.53;5.73;;;;;;;-2.96;56.86;101714.11;1710793;82;21885;-40
2020/12/09 03:05:30;;;;;;;9.17;5.13;;;;;;;-2.93;56.92;101710.67;1717097;82;21601;-40
2020/12/09 03:07:58;;;;;;;8.47;4.60;;;;;;;-2.94;56.99;101713.72;1718479;82;21169;-41
2020/12/09 03:10:25;;;;;;;9.60;5.17;;;;;;;-2.91;57.13;101714.20;1711243;82;21166;-40
2020/12/09 03:12:53;;;;;;;9.57;5.23;;;;;;;-2.88;57.08;101724.69;1703479;83;21142;-41
2020/12/09 03:15:20;;;;;;;12.83;5.57;;;;;;;-2.86;57.05;101726.90;1699857;83;21142;-39
2020/12/09 03:17:48;;;;;;;9.30;5.23;;;;;;;-2.84;57.08;101727.80;1703955;82;21177;-42
2020/12/09 03:20:15;;;;;;;10.90;6.27;;;;;;;-2.83;57.04;101726.50;1704063;82;21126;-44
2020/12/09 03:22:43;;;;;;;10.73;5.40;;;;;;;-2.79;57.25;101718.75;1700929;82;21601;-44
2020/12/09 03:25:10;;;;;;;8.53;5.10;;;;;;;-2.77;57.17;101722.23;1702633;82;21138;-42
2020/12/09 03:27:37;;;;;;;9.63;5.13;;;;;;;-2.77;57.26;101714.00;1703138;84;21445;-42
2020/12/09 03:30:05;;;;;;;11.37;6.40;;;;;;;-2.74;57.34;101719.27;1706208;82;22176;-40
2020/12/09 03:32:32;;;;;;;11.43;5.60;;;;;;;-2.74;57.24;101717.09;1706386;82;21419;-44
2020/12/09 03:35:01;;;;;;;7.40;4.97;;;;;;;-2.72;57.30;101719.27;1696822;82;21126;-43
2020/12/09 03:37:28;;;;;;;10.37;5.50;;;;;;;-2.70;57.24;101713.21;1701169;84;21142;-44
2020/12/09 03:39:55;;;;;;;7.93;5.23;;;;;;;-2.66;57.14;101720.69;1670112;84;21177;-41
2020/12/09 03:42:23;;;;;;;9.97;6.37;;;;;;;-2.64;57.25;101720.29;1644200;86;21165;-39
2020/12/09 03:44:50;;;;;;;10.93;6.20;;;;;;;-2.64;57.15;101713.76;1700658;83;21138;-39
2020/12/09 03:47:18;;;;;;;8.13;5.30;;;;;;;-2.66;57.14;101707.63;1700669;84;21154;-42
2020/12/09 03:49:45;;;;;;;9.30;5.47;;;;;;;-2.64;57.29;101703.31;1704341;82;21173;-42
2020/12/09 03:52:13;;;;;;;10.70;6.60;;;;;;;-2.61;57.36;101705.52;1702002;82;21134;-44
2020/12/09 03:54:40;;;;;;;8.47;5.07;;;;;;;-2.58;57.33;101709.05;1703015;82;21154;-45
2020/12/09 03:57:08;;;;;;;11.50;6.77;;;;;;;-2.58;57.33;101707.73;1704149;82;21489;-39
2020/12/09 03:59:35;;;;;;;14.57;6.20;;;;;;;-2.58;57.47;101696.86;1706077;84;21644;-40
2020/12/09 04:02:03;;;;;;;10.53;6.43;;;;;;;-2.57;57.42;101703.86;1702833;82;21158;-40
2020/12/09 04:04:30;;;;;;;11.13;5.80;;;;;;;-2.57;57.49;101697.73;1702078;82;21150;-40
2020/12/09 04:06:58;;;;;;;10.50;6.63;;;;;;;-2.55;57.57;101696.89;1703277;84;21162;-43
2020/12/09 04:09:26;;;;;;;9.87;5.23;;;;;;;-2.53;57.54;101692.58;1700671;84;21150;-42
2020/12/09 04:11:53;;;;;;;9.20;5.67;;;;;;;-2.50;57.72;101690.00;1716874;82;21149;-39
2020/12/09 04:14:21;;;;;;;12.20;5.97;;;;;;;-2.47;57.61;101687.86;1715972;82;21134;-43
2020/12/09 04:16:48;;;;;;;11.60;5.17;;;;;;;-2.46;57.74;101689.20;1717090;82;21577;-42
2020/12/09 04:19:16;;;;;;;9.93;5.40;;;;;;;-2.44;57.63;101690.11;1704299;82;21106;-39
2020/12/09 04:21:43;;;;;;;9.03;5.07;;;;;;;-2.43;57.52;101693.16;1717716;82;21129;-40
2020/12/09 04:24:11;;;;;;;10.67;6.43;;;;;;;-2.43;57.66;101693.16;1715579;82;21113;-43
2020/12/09 04:26:38;;;;;;;10.30;5.57;;;;;;;-2.42;57.71;101693.63;1714451;83;21177;-42
2020/12/09 04:29:06;;;;;;;8.47;5.30;;;;;;;-2.41;57.77;101689.27;1711978;82;21153;-42
2020/12/09 04:31:34;;;;;;;9.00;5.87;;;;;;;-2.42;57.71;101694.93;1711204;82;21165;-42
2020/12/09 04:34:02;;;;;;;11.40;6.30;;;;;;;-2.41;57.76;101696.67;1714440;82;21573;-41
2020/12/09 04:36:30;;;;;;;7.50;5.73;;;;;;;-2.41;57.90;101694.06;1715036;82;21133;-43
2020/12/09 04:38:57;;;;;;;11.83;6.80;;;;;;;-2.40;57.67;101694.93;1716724;83;21549;-43
2020/12/09 04:41:25;;;;;;;9.70;5.40;;;;;;;-2.40;57.83;101701.47;1717599;82;21170;-43
2020/12/09 04:43:52;;;;;;;9.30;4.87;;;;;;;-2.40;57.91;101702.77;1715558;83;21276;-41
2020/12/09 04:46:20;;;;;;;12.43;5.67;;;;;;;-2.40;58.09;101698.41;1714820;82;21165;-38
2020/12/09 04:48:57;;;;;;;10.53;6.63;;;;;;;-2.38;58.16;101699.75;1715937;82;21134;-44
2020/12/09 04:52:13;;;;;;;10.00;5.70;;;;;;;-2.38;58.18;101697.14;1719498;83;21691;-42
2020/12/09 04:54:43;;;;;;;9.63;5.30;;;;;;;-2.36;58.20;101695.44;1717219;82;21640;-40
2020/12/09 04:57:34;;;;;;;10.73;5.90;;;;;;;-2.35;58.23;101691.95;1715962;83;21137;-43
2020/12/09 05:00:05;;;;;;;11.15;6.22;;;;;;;-2.36;58.35;101694.13;1716767;82;21173;-40
2020/12/09 05:02:51;;;;;;;11.28;6.22;;;;;;;-2.34;58.31;101693.73;1715568;83;21141;-41
2020/12/09 05:05:23;;;;;;;11.10;6.40;;;;;;;-2.34;58.43;101701.56;1717804;83;21125;-38
2020/12/09 05:11:48;;;;;;;14.60;12.00;;;;;;;-2.26;58.58;101709.08;1804226;77;22911;-43
2020/12/09 05:14:16;;;;;;;11.10;6.27;;;;;;;-2.32;58.69;101705.48;1748581;80;21133;-45
2020/12/09 05:16:49;;;;;;;10.20;6.33;;;;;;;-2.34;58.69;101706.80;1725563;81;21117;-46
2020/12/09 05:19:17;;;;;;;11.47;5.97;;;;;;;-2.36;58.83;101715.03;1744432;80;21126;-42
2020/12/09 05:21:45;;;;;;;9.77;6.40;;;;;;;-2.34;58.89;101718.55;1759177;81;21149;-42
2020/12/09 05:24:12;;;;;;;12.50;6.23;;;;;;;-2.32;58.91;101721.17;1757707;81;21145;-41
2020/12/09 05:26:40;;;;;;;10.77;5.77;;;;;;;-2.30;59.09;101722.95;1696162;80;21149;-44
2020/12/09 05:29:18;;;;;;;12.37;6.90;;;;;;;-2.29;59.48;101725.16;1757592;81;21157;-42
2020/12/09 05:31:49;;;;;;;9.60;6.03;;;;;;;-2.26;59.44;101725.19;1756669;80;21136;-39
2020/12/09 05:34:31;;;;;;;11.35;6.35;;;;;;;-2.25;59.44;101718.66;1753440;81;21144;-42
2020/12/09 05:37:04;;;;;;;10.37;7.37;;;;;;;-2.24;59.33;101732.20;1741097;80;21149;-44
2020/12/09 05:39:32;;;;;;;12.20;6.60;;;;;;;-2.25;59.48;101729.11;1756842;81;21632;-40
2020/12/09 05:42:17;;;;;;;9.83;5.90;;;;;;;-2.24;59.46;101728.71;1740064;80;21157;-38
2020/12/09 05:44:45;;;;;;;9.17;6.10;;;;;;;-2.26;59.46;101735.21;1754551;81;21145;-41
2020/12/09 05:47:13;;;;;;;14.13;7.00;;;;;;;-2.26;59.48;101729.11;1743656;80;21521;-41
2020/12/09 05:49:41;;;;;;;10.30;5.93;;;;;;;-2.25;59.55;101730.86;1748027;81;21258;-44
2020/12/09 05:52:12;;;;;;;11.07;6.03;;;;;;;-2.26;59.60;101726.50;1723645;81;21161;-41
2020/12/09 05:54:49;;;;;;;10.43;6.17;;;;;;;-2.24;59.70;101723.48;1717347;82;21153;-40
2020/12/09 05:57:20;;;;;;;12.37;6.77;;;;;;;-2.24;59.74;101727.41;1722554;81;21169;-42
2020/12/09 05:59:49;;;;;;;9.70;6.37;;;;;;;-2.25;59.96;101721.27;1725537;81;21165;-39
2020/12/09 06:02:19;;;;;;;10.40;6.43;;;;;;;-2.23;60.06;101726.09;1719270;81;21172;-41
2020/12/09 06:05:02;;;;;;;10.73;6.63;;;;;;;-2.22;60.10;101724.36;1719351;82;21121;-41
2020/12/09 06:07:31;;;;;;;9.07;5.97;;;;;;;-2.21;60.23;101728.75;1731448;81;21114;-41
2020/12/09 06:10:17;;;;;;;10.77;6.70;;;;;;;-2.22;60.35;101725.27;1727991;81;21156;-44
2020/12/09 06:12:57;;;;;;;10.97;6.90;;;;;;;-2.23;60.41;101725.23;1711486;82;21170;-39
2020/12/09 06:15:29;;;;;;;9.97;6.23;;;;;;;-2.20;60.46;101729.18;1707403;82;21621;-43
2020/12/09 06:18:11;;;;;;;10.43;5.77;;;;;;;-2.19;60.45;101730.95;1701779;82;21142;-39
2020/12/09 06:20:40;;;;;;;10.13;6.20;;;;;;;-2.20;60.55;101731.36;1698245;82;21146;-40
2020/12/09 06:23:11;;;;;;;8.43;5.77;;;;;;;-2.22;60.74;101729.58;1712857;82;21681;-41
2020/12/09 06:25:39;;;;;;;12.55;6.87;;;;;;;-2.24;60.75;101728.71;1705854;82;21118;-41
2020/12/09 06:28:16;;;;;;;8.63;5.90;;;;;;;-2.28;61.08;101733.00;1710383;82;21450;-38
2020/12/09 06:30:44;;;;;;;13.17;6.33;;;;;;;-2.25;61.26;101730.86;1702841;82;21130;-41
2020/12/09 06:33:12;;;;;;;10.33;6.37;;;;;;;-2.23;61.39;101736.98;1707229;83;21161;-38
2020/12/09 06:35:40;;;;;;;11.17;6.57;;;;;;;-2.22;61.44;101740.95;1701966;82;21170;-40
2020/12/09 06:38:13;;;;;;;9.30;6.37;;;;;;;-2.17;61.57;101744.90;1682069;83;21157;-41
2020/12/09 06:41:07;;;;;;;10.40;6.77;;;;;;;-2.15;61.67;101743.62;1705924;83;21157;-39
2020/12/09 06:43:34;;;;;;;11.43;6.10;;;;;;;-2.15;61.72;101738.41;1691895;83;21156;-42
2020/12/09 06:46:02;;;;;;;11.87;6.70;;;;;;;-2.16;61.87;101736.66;1704694;82;21586;-40
2020/12/09 06:48:38;;;;;;;11.83;6.80;;;;;;;-2.16;62.17;101743.19;1695109;83;21192;-42
2020/12/09 06:51:40;;;;;;;10.80;6.70;;;;;;;-2.15;62.79;101737.97;1699966;82;21177;-39
2020/12/09 06:54:13;;;;;;;12.57;8.20;;;;;;;-2.11;62.67;101738.91;1704391;82;21157;-40
2020/12/09 06:56:42;;;;;;;11.47;7.13;;;;;;;-2.12;62.76;101744.53;1705486;82;21158;-38
2020/12/09 06:59:26;;;;;;;11.77;6.57;;;;;;;-2.11;62.91;101743.70;1705395;82;21178;-40
2020/12/09 07:02:05;;;;;;;12.97;7.93;;;;;;;-2.10;62.92;101739.34;1722213;81;21180;-36
2020/12/09 07:04:58;;;;;;;13.50;6.93;;;;;;;-2.10;63.13;101740.64;1697695;82;21166;-39
2020/12/09 07:07:31;;;;;;;11.30;6.63;;;;;;;-2.11;63.31;101741.52;1732440;81;21568;-39
2020/12/09 07:10:00;;;;;;;11.00;7.03;;;;;;;-2.10;63.39;101742.83;1693969;83;21286;-40
2020/12/09 07:12:28;;;;;;;12.00;6.90;;;;;;;-2.10;63.67;101743.26;1713368;81;21296;-39
2020/12/09 07:14:57;;;;;;;12.93;7.40;;;;;;;-2.09;63.73;101749.83;1718488;82;21146;-44
2020/12/09 07:17:26;;;;;;;13.47;7.63;;;;;;;-2.09;63.84;101746.31;1739885;81;21149;-40
2020/12/09 07:19:57;;;;;;;10.70;6.53;;;;;;;-2.10;63.98;101752.41;1740456;80;21150;-40
2020/12/09 07:22:26;;;;;;;12.07;7.05;;;;;;;-2.10;64.06;101753.28;1718643;82;21161;-40
2020/12/09 07:24:55;;;;;;;14.23;7.73;;;;;;;-2.09;64.24;101750.23;1746111;80;21185;-40
2020/12/09 07:27:25;;;;;;;12.67;6.93;;;;;;;-2.09;64.28;101752.84;1724802;81;21303;-41
2020/12/09 07:29:56;;;;;;;10.87;7.30;;;;;;;-2.06;64.39;101754.22;1723955;81;21153;-44
2020/12/09 07:32:22;;;;;;;13.10;6.93;;;;;;;-2.05;64.68;101754.66;1720866;81;21142;-42
2020/12/09 07:34:56;;;;;;;15.47;7.90;;;;;;;-2.07;64.78;101757.23;1727227;81;21185;-42
2020/12/09 07:37:26;;;;;;;11.63;6.37;;;;;;;-2.09;65.08;101752.84;1726153;81;21121;-42
2020/12/09 07:39:56;;;;;;;12.23;7.40;;;;;;;-2.10;65.31;101753.28;1735945;81;21134;-41
2020/12/09 07:42:23;;;;;;;13.57;7.20;;;;;;;-2.06;65.61;101749.86;1711455;82;21213;-49
2020/12/09 07:44:52;;;;;;;15.17;8.33;;;;;;;-2.01;65.77;101752.55;1717498;82;21125;-43
2020/12/09 07:47:28;;;;;;;11.73;6.87;;;;;;;-1.98;65.72;101753.45;1715895;82;21153;-43
2020/12/09 07:50:03;;;;;;;13.43;7.37;;;;;;;-1.94;65.84;101755.70;1733793;80;21226;-42
2020/12/09 07:52:33;;;;;;;15.87;8.70;;;;;;;-1.90;66.31;101750.94;1720335;82;21195;-47
2020/12/09 07:55:07;;;;;;;12.15;7.70;;;;;;;-1.88;66.17;101743.13;1715966;81;21169;-46
2020/12/09 07:57:36;;;;;;;16.47;7.00;;;;;;;-1.86;66.27;101746.64;1690808;82;21149;-43
2020/12/09 08:00:15;;;;;;;11.20;6.67;;;;;;;-1.84;66.33;101747.11;1732062;81;21153;-42
2020/12/09 08:02:45;;;;;;;14.13;8.43;;;;;;;-1.83;66.41;101742.31;1738440;80;21138;-40
2020/12/09 08:05:21;;;;;;;14.50;7.30;;;;;;;-1.82;66.49;101740.56;1733865;81;21134;-38
2020/12/09 08:07:53;;;;;;;13.23;8.37;;;;;;;-1.81;66.65;101747.58;1739630;80;21153;-39
2020/12/09 08:10:24;;;;;;;12.97;7.90;;;;;;;-1.80;66.68;101737.55;1739909;80;21114;-41
2020/12/09 08:13:08;;;;;;;14.13;8.47;;;;;;;-1.79;66.83;101734.96;1727908;80;21178;-40
2020/12/09 08:15:41;;;;;;;14.93;8.13;;;;;;;-1.76;66.92;101740.66;1731943;80;21110;-40
2020/12/09 08:18:11;;;;;;;13.87;8.53;;;;;;;-1.77;67.01;101746.73;1771118;79;21561;-48
2020/12/09 08:20:47;;;;;;;12.47;8.40;;;;;;;-1.75;67.23;101745.89;1767768;79;21898;-40
2020/12/09 08:23:15;;;;;;;15.00;9.00;;;;;;;-1.68;67.29;101742.93;1768608;79;21554;-37
2020/12/09 08:25:51;;;;;;;15.33;8.83;;;;;;;-1.65;67.31;101744.27;1768262;79;21952;-42
2020/12/09 08:28:25;;;;;;;14.93;8.27;;;;;;;-1.60;67.24;101741.27;1766158;79;21138;-41
2020/12/09 08:31:16;;;;;;;13.27;8.00;;;;;;;-1.56;67.43;101740.89;1769569;80;21157;-44
2020/12/09 08:33:43;;;;;;;17.23;8.55;;;;;;;-1.52;67.27;101740.05;1768483;79;21137;-53
2020/12/09 08:36:14;;;;;;;14.83;8.83;;;;;;;-1.52;67.26;101747.46;1768140;80;21142;-42
2020/12/09 08:38:46;;;;;;;15.50;8.93;;;;;;;-1.49;67.13;101747.05;1769570;79;21189;-43
2020/12/09 08:41:33;;;;;;;14.50;7.63;;;;;;;-1.48;67.25;101744.47;1765089;79;21573;-44
2020/12/09 08:44:06;;;;;;;14.33;8.33;;;;;;;-1.46;67.27;101748.39;1710340;83;21146;-40
2020/12/09 08:46:36;;;;;;;13.17;7.77;;;;;;;-1.45;67.29;101744.93;1770814;79;21102;-43
2020/12/09 08:49:07;;;;;;;17.97;8.53;;;;;;;-1.44;67.28;101742.31;1770124;80;21273;-41
2020/12/09 08:51:36;;;;;;;15.33;7.73;;;;;;;-1.41;67.32;101746.70;1774234;79;21138;-39
2020/12/09 08:54:07;;;;;;;11.77;7.50;;;;;;;-1.41;67.49;101743.68;1773346;79;21531;-41
2020/12/09 08:56:35;;;;;;;;;;;;;;;-1.40;67.31;101736.70;1714281;82;21161;-39
2020/12/09 08:59:03;;;;;;;14.47;8.30;;;;;;;-1.36;67.37;101735.84;1701287;82;20198;-41
2020/12/09 09:01:38;;;;;;;16.73;8.40;;;;;;;-1.35;67.43;101727.16;1705700;82;21133;-42
2020/12/09 09:04:10;;;;;;;15.13;8.83;;;;;;;-1.35;67.40;101731.08;1767045;79;21153;-41
2020/12/09 09:06:38;;;;;;;14.30;8.37;;;;;;;-1.34;67.34;101728.89;1773626;79;21963;-40
2020/12/09 09:09:06;;;;;;;14.77;7.60;;;;;;;-1.33;67.48;101728.05;1771774;79;21151;-41
2020/12/09 09:11:34;;;;;;;14.33;7.80;;;;;;;-1.33;67.56;101723.69;1767249;79;21165;-43
2020/12/09 09:14:02;;;;;;;12.23;7.23;;;;;;;-1.32;67.57;101719.33;1768293;79;21165;-42
2020/12/09 09:16:30;;;;;;;13.43;8.27;;;;;;;-1.31;67.77;101718.48;1769430;79;21153;-40
2020/12/09 09:18:58;;;;;;;12.93;6.93;;;;;;;-1.27;67.73;101721.99;1772919;79;21550;-43
2020/12/09 09:21:25;;;;;;;14.67;7.47;;;;;;;-1.24;67.53;101724.63;1769716;79;21153;-44
2020/12/09 09:23:53;;;;;;;12.87;8.00;;;;;;;-1.23;67.49;101719.42;1725571;79;21560;-43
2020/12/09 09:26:20;;;;;;;14.10;8.43;;;;;;;-1.18;67.48;101716.42;1769029;79;21482;-42
2020/12/09 09:28:48;;;;;;;14.70;6.87;;;;;;;-1.13;67.25;101712.53;1768259;80;21157;-41
2020/12/09 09:31:15;;;;;;;10.40;6.50;;;;;;;-1.12;66.99;101717.77;1770647;79;21129;-44
2020/12/09 09:33:43;;;;;;;10.57;6.30;;;;;;;-1.11;66.67;101718.23;1714651;82;21161;-45
2020/12/09 09:36:10;;;;;;;12.30;7.40;;;;;;;-1.14;66.53;101714.69;1772495;79;21138;-44
2020/12/09 09:38:38;;;;;;;11.37;6.60;;;;;;;-1.14;66.25;101715.56;1770352;79;21149;-42
2020/12/09 09:41:05;;;;;;;9.63;5.70;;;;;;;-1.13;66.04;101717.77;1771533;79;22025;-44
2020/12/09 09:43:33;;;;;;;10.43;6.77;;;;;;;-1.12;65.71;101719.52;1776134;79;21145;-43
2020/12/09 09:46:01;;;;;;;11.33;6.83;;;;;;;-1.09;65.60;101712.99;1767022;79;21129;-40
2020/12/09 09:48:29;;;;;;;9.07;6.10;;;;;;;-1.08;65.45;101716.08;1771264;79;21142;-42
2020/12/09 09:50:56;;;;;;;10.93;6.87;;;;;;;-1.09;65.21;101706.44;1774956;79;21134;-43
2020/12/09 09:53:24;;;;;;;10.90;6.33;;;;;;;-1.07;65.11;101706.03;1773444;79;21106;-45
2020/12/09 09:55:51;;;;;;;11.90;6.17;;;;;;;-1.06;64.88;101713.01;1711499;82;21138;-41
2020/12/09 09:58:19;;;;;;;14.10;6.83;;;;;;;-1.05;64.75;101704.31;1775447;79;21130;-41
2020/12/09 10:00:46;;;;;;;11.37;6.83;;;;;;;-1.02;64.61;101708.70;1768993;79;21170;-43
2020/12/09 10:03:14;;;;;;;10.03;5.60;;;;;;;-1.01;64.45;101711.75;1774191;79;21128;-41
2020/12/09 10:05:41;;;;;;;10.07;6.70;;;;;;;-1.03;64.41;101701.69;1707492;82;21157;-40
2020/12/09 10:08:09;;;;;;;10.97;6.27;;;;;;;-1.02;64.31;101708.70;1773116;79;21586;-40
2020/12/09 10:10:37;;;;;;;9.87;5.90;;;;;;;-1.01;64.18;101706.06;1769751;79;21620;-41
2020/12/09 10:13:04;;;;;;;10.27;6.13;;;;;;;-0.99;64.17;101704.34;1767992;79;21550;-39
2020/12/09 10:15:32;;;;;;;9.70;5.57;;;;;;;-0.97;63.96;101706.99;1765619;79;21141;-43
2020/12/09 10:17:59;;;;;;;11.77;6.83;;;;;;;-0.97;63.93;101703.06;1767305;79;21142;-39
2020/12/09 10:20:27;;;;;;;10.40;6.50;;;;;;;-0.98;63.79;101696.95;1772177;79;21443;-42
2020/12/09 10:22:54;;;;;;;11.43;7.10;;;;;;;-0.99;63.94;101703.03;1770585;79;21145;-43
2020/12/09 10:25:24;;;;;;;10.73;6.53;;;;;;;-0.99;63.83;101703.03;1767645;79;21137;-40
2020/12/09 10:27:52;;;;;;;10.13;6.40;;;;;;;-0.98;63.88;101701.33;1768563;79;21564;-40
2020/12/09 10:30:20;;;;;;;11.17;6.27;;;;;;;-0.97;63.92;101698.70;1773830;79;21567;-39
2020/12/09 10:32:48;;;;;;;8.87;6.43;;;;;;;-0.94;63.96;101696.53;1775974;79;21158;-41
2020/12/09 10:35:17;;;;;;;11.53;6.10;;;;;;;-0.92;63.91;101698.30;1772599;79;21095;-39
2020/12/09 10:37:45;;;;;;;12.33;7.60;;;;;;;-0.87;63.95;101697.03;1773034;79;21931;-41
2020/12/09 10:40:13;;;;;;;13.87;7.83;;;;;;;-0.83;63.98;101689.66;1772843;79;21453;-40
2020/12/09 10:42:41;;;;;;;13.03;7.17;;;;;;;-0.81;63.96;101685.27;1711068;82;21157;-40
2020/12/09 10:45:10;;;;;;;10.77;7.33;;;;;;;-0.82;64.16;101682.66;1767955;79;21149;-43
2020/12/09 10:47:37;;;;;;;13.87;9.07;;;;;;;-0.84;64.26;101683.95;1774546;79;21688;-41
2020/12/09 10:50:05;;;;;;;11.80;7.30;;;;;;;-0.82;64.32;101682.23;1776394;79;21466;-44
2020/12/09 10:52:33;;;;;;;15.97;9.07;;;;;;;-0.79;64.36;101682.67;1711037;82;21155;-41
2020/12/09 10:55:00;;;;;;;13.57;8.20;;;;;;;-0.77;64.34;101683.58;1777944;79;21280;-41
2020/12/09 10:57:28;;;;;;;14.73;7.67;;;;;;;-0.74;64.31;101687.52;1772066;79;21146;-42
2020/12/09 10:59:56;;;;;;;11.90;7.20;;;;;;;-0.74;64.17;101684.90;1748393;80;21130;-39
2020/12/09 11:02:24;;;;;;;13.93;7.67;;;;;;;-0.74;64.04;101692.31;1773585;79;21153;-39
2020/12/09 11:04:51;;;;;;;13.27;7.20;;;;;;;-0.75;64.01;101687.95;1775816;79;21304;-40
2020/12/09 11:07:21;;;;;;;14.67;7.70;;;;;;;-0.77;64.09;101693.61;1775583;79;21142;-45
2020/12/09 11:09:49;;;;;;;15.23;8.30;;;;;;;-0.77;64.06;101691.44;1731290;81;21466;-44
2020/12/09 11:12:18;;;;;;;13.00;8.13;;;;;;;-0.76;64.20;101693.17;1775543;79;21255;-44
2020/12/09 11:14:49;;;;;;;12.15;6.80;;;;;;;-0.74;64.03;101694.94;1767402;79;21628;-42
2020/12/09 11:17:16;;;;;;;13.20;7.63;;;;;;;-0.74;64.02;101693.63;1767972;79;21132;-41
2020/12/09 11:19:44;;;;;;;15.47;8.40;;;;;;;-0.71;64.07;101696.70;1770330;80;21146;-43
2020/12/09 11:22:12;;;;;;;12.17;7.80;;;;;;;-0.69;63.93;101697.59;1706995;82;21170;-43
2020/12/09 11:24:40;;;;;;;11.97;7.73;;;;;;;-0.69;64.01;101689.73;1732477;81;21138;-43
2020/12/09 11:27:07;;;;;;;16.33;9.47;;;;;;;-0.67;63.84;101691.94;1766282;79;21177;-44
2020/12/09 11:29:35;;;;;;;13.90;7.67;;;;;;;-0.68;63.83;101692.38;1776235;79;21145;-42
2020/12/09 11:32:02;;;;;;;19.53;9.07;;;;;;;-0.70;63.81;101686.25;1768192;79;21312;-44
2020/12/09 11:34:31;;;;;;;14.03;7.83;;;;;;;-0.70;63.90;101682.31;1766741;79;21098;-42
2020/12/09 11:37:03;;;;;;;15.63;8.63;;;;;;;-0.71;63.91;101685.78;1772649;79;21126;-41
2020/12/09 11:39:31;;;;;;;14.70;8.13;;;;;;;-0.67;63.80;101676.22;1773826;79;21339;-42